首页
METAR-TAF:

METAR-TAF

机场 :

洛杉磯國際機場

洛杉矶, 加利福尼亚州, 美国

纬度: 33-56-17N, 经度: 118-23-20W, 海拔: 38米

当前天气观测

该预报发布于25分钟前的19:53 UTC
风速9节,风向西
温度 22°C
湿度 69%
气压 1012 hPa
能見度: 9.7公里
天空无云

METAR: KLAX 201953Z 26009KT 6SM HZ CLR 22/16 A2989 RMK AO2 SLP121 T02220156 $

时间: 13:18 (20:18 UTC)

预报

该预报发布于2小时和41分钟前的17:37 UTC
预报有效从20日的 18点(UTC)到 21日的 24点(UTC)
风速5节,风向南转南东
能見度: 4.8公里
散云层高于1000英尺
轻雾
从 20日的 1900点(UTC)
风速6节,风向西转西南
能見度: 10公里
天空无云
从 20日的 2100点(UTC)
风速12节,风向西
能見度: 10公里
天空无云
从 21日的 0500点(UTC)
风速3节,风向多变
能見度: 10公里
天空无云
从 21日的 1200点(UTC)
风速3节,风向多变
能見度: 6.4公里
多云层高于700英尺
轻雾
从 21日的 1400点(UTC)
风速3节,风向多变
能見度: 1.6公里
层高于200英尺
轻雾
从 21日的 1700点(UTC)
风速6节,风向西转西南
能見度: 10公里
天空无云
从 21日的 2100点(UTC)
风速12节,风向西
能見度: 10公里
天空无云

TAF: KLAX 201737Z 2018/2124 16005KT 3SM BR SCT010 FM201900 25006KT P6SM SKC FM202100 26012KT P6SM SKC FM210500 VRB03KT P6SM SKC FM211200 VRB03KT 4SM BR BKN007 FM211400 VRB03KT 1SM BR VV002 FM211700 25006KT P6SM SKC FM212100 26012KT P6SM SKC

超过4000个机场的气象观测和天气预报(METAR&TAF报告)。

可查询的气象台以黄色和红色小点在地图上表示。

将鼠标移到小点上方,可查看气象台名称。

然后点击查看天气观测和预报。

如需切换地图:点击带黑十字的绿色按钮放大地图;点击带横线的绿色按钮缩小地图;或者点击绿色箭头查看邻近地区的地图。


METAR-TAF: